Time;durP1;ratioP1;P1;durP2;ratioP2;P2;SDS_P1;SDS_P2;PMS_P1;PMS_P2;Temp;Humidity;BMP_temperature;BMP_pressure;BME280_temperature;BME280_humidity;BME280_pressure;Samples;Min_cycle;Max_cycle;Signal;HPM_P1;HPM_P2
2024/02/08 00:01:50;;;;;;;6.20;3.70;;;;;;;1.44;86.37;97729.36;226410;1277;22545;-79
2024/02/08 00:06:56;;;;;;;7.20;3.50;;;;;;;1.44;86.34;97727.14;226453;1277;22563;-79
2024/02/08 00:11:58;;;;;;;8.60;4.30;;;;;;;1.44;86.53;97718.63;226354;1277;22585;-79
2024/02/08 00:17:02;;;;;;;7.40;4.50;;;;;;;1.46;86.52;97713.13;226398;1277;22473;-79
2024/02/08 00:22:05;;;;;;;6.00;3.90;;;;;;;1.48;86.52;97705.07;226129;1277;22558;-79
2024/02/08 00:27:07;;;;;;;6.60;3.80;;;;;;;1.50;86.59;97708.17;226280;1276;22540;-79
2024/02/08 00:32:09;;;;;;;5.20;3.70;;;;;;;1.52;86.54;97716.06;226346;1277;24403;-79
2024/02/08 00:37:11;;;;;;;7.60;4.10;;;;;;;1.53;86.33;97714.94;226458;1277;22540;-79
2024/02/08 00:42:14;;;;;;;8.60;5.50;;;;;;;1.56;86.51;97707.89;226061;1278;25334;-79
2024/02/08 00:47:16;;;;;;;13.70;8.20;;;;;;;1.56;86.55;97712.73;226396;1277;22543;-79
2024/02/08 00:52:18;;;;;;;17.20;10.70;;;;;;;1.55;86.68;97729.07;226402;1276;22827;-79
2024/02/08 00:57:21;;;;;;;24.50;14.60;;;;;;;1.54;86.53;97727.52;226345;1276;22599;-79
2024/02/08 01:02:23;;;;;;;26.20;14.90;;;;;;;1.50;86.94;97713.45;226393;1277;22540;-79
2024/02/08 01:07:27;;;;;;;29.80;19.10;;;;;;;1.49;86.82;97713.45;226386;1277;25293;-77
2024/02/08 01:12:31;;;;;;;39.50;23.80;;;;;;;1.48;86.99;97722.05;226387;1275;22543;-78
2024/02/08 01:17:33;;;;;;;44.10;28.40;;;;;;;1.48;87.19;97718.64;226265;1276;22675;-78
2024/02/08 01:22:35;;;;;;;45.00;28.20;;;;;;;1.47;86.98;97715.71;226373;1276;22578;-77
2024/02/08 01:27:37;;;;;;;46.10;29.20;;;;;;;1.47;86.96;97711.23;226330;1277;22569;-80
2024/02/08 01:32:42;;;;;;;37.80;26.00;;;;;;;1.48;87.44;97718.58;226320;1273;22544;-78
2024/02/08 01:37:45;;;;;;;39.00;25.20;;;;;;;1.48;87.15;97715.00;226346;1276;22539;-79
2024/02/08 01:42:48;;;;;;;39.90;25.50;;;;;;;1.47;87.16;97711.23;226319;1277;22585;-78
2024/02/08 01:47:50;;;;;;;40.80;24.90;;;;;;;1.44;87.06;97719.66;226308;1277;25041;-79
2024/02/08 01:52:53;;;;;;;36.00;24.40;;;;;;;1.42;87.19;97715.71;226477;1276;22590;-78
2024/02/08 01:57:56;;;;;;;36.40;24.50;;;;;;;1.40;87.26;97715.24;226439;1278;22551;-78
2024/02/08 02:03:01;;;;;;;38.00;24.80;;;;;;;1.39;87.33;97714.45;226424;1276;22552;-78
2024/02/08 02:08:05;;;;;;;40.10;25.00;;;;;;;1.38;87.46;97710.19;226423;1278;22661;-78
2024/02/08 02:13:09;;;;;;;39.40;25.70;;;;;;;1.41;87.52;97700.52;226345;1273;22570;-78
2024/02/08 02:18:11;;;;;;;36.00;23.20;;;;;;;1.42;87.52;97703.03;226150;1273;25421;-78
2024/02/08 02:23:18;;;;;;;40.30;25.60;;;;;;;1.40;87.44;97701.67;226222;1277;24254;-79
2024/02/08 02:28:21;;;;;;;41.50;25.70;;;;;;;1.39;87.50;97702.65;226194;1276;24235;-79
2024/02/08 02:33:25;;;;;;;41.30;24.90;;;;;;;1.38;87.63;97692.50;226318;1273;25277;-78
2024/02/08 02:38:28;;;;;;;38.80;24.60;;;;;;;1.36;87.66;97686.66;226224;1277;22599;-78
2024/02/08 02:43:32;;;;;;;33.20;21.60;;;;;;;1.35;87.74;97691.63;226355;1276;23632;-78
2024/02/08 02:48:35;;;;;;;36.60;22.90;;;;;;;1.35;87.61;97694.95;226316;1275;24288;-78
2024/02/08 02:53:40;;;;;;;38.00;25.50;;;;;;;1.34;87.68;97690.90;226365;1276;25274;-79
2024/02/08 02:58:42;;;;;;;35.60;23.30;;;;;;;1.33;87.69;97688.89;226407;1275;22557;-79
2024/02/08 03:03:47;;;;;;;35.10;23.80;;;;;;;1.34;87.91;97682.13;226405;1270;22549;-79
2024/02/08 03:08:49;;;;;;;35.90;22.50;;;;;;;1.35;87.64;97681.19;226383;1273;22550;-79
2024/02/08 03:13:52;;;;;;;36.10;23.70;;;;;;;1.34;87.66;97681.14;226217;1276;22563;-79
2024/02/08 03:18:56;;;;;;;36.90;22.70;;;;;;;1.32;87.76;97681.33;226335;1277;22578;-78
2024/02/08 03:23:59;;;;;;;33.40;20.50;;;;;;;1.31;87.77;97673.98;226233;1269;22612;-79
2024/02/08 03:29:01;;;;;;;32.30;20.80;;;;;;;1.29;87.73;97678.91;226263;1277;22547;-79
2024/02/08 03:34:03;;;;;;;34.10;23.00;;;;;;;1.27;87.86;97683.13;226228;1272;24224;-78
2024/02/08 03:39:08;;;;;;;36.60;23.40;;;;;;;1.25;87.66;97679.64;226339;1277;22892;-78
2024/02/08 03:44:12;;;;;;;42.20;29.00;;;;;;;1.23;87.84;97678.15;226381;1277;22523;-78
2024/02/08 03:49:14;;;;;;;42.10;28.30;;;;;;;1.21;87.97;97680.79;226358;1273;22607;-78
2024/02/08 03:54:16;;;;;;;35.60;24.60;;;;;;;1.21;87.98;97681.92;226313;1277;22604;-79
2024/02/08 03:59:26;;;;;;;41.10;28.10;;;;;;;1.20;88.01;97684.67;226378;1273;22564;-79
2024/02/08 04:04:50;;;;;;;41.70;28.30;;;;;;;1.18;87.75;97687.36;226243;1276;22557;-79
2024/02/08 04:09:55;;;;;;;39.20;26.30;;;;;;;1.16;88.01;97685.42;226338;1277;22553;-79
2024/02/08 04:58:12;;;;;;;38.30;24.30;;;;;;;1.08;88.31;97666.70;226325;1276;24247;-79
2024/02/08 05:03:37;;;;;;;36.90;23.30;;;;;;;1.07;88.34;97675.23;226353;1277;22536;-79
2024/02/08 05:08:44;;;;;;;35.70;22.00;;;;;;;1.07;88.28;97668.85;226356;1272;22561;-79
2024/02/08 05:13:50;;;;;;;28.20;19.60;;;;;;;1.06;88.28;97664.92;226096;1277;24285;-79
2024/02/08 05:18:55;;;;;;;30.10;22.10;;;;;;;1.03;88.39;97675.85;226195;1277;22564;-79
2024/02/08 05:23:58;;;;;;;25.10;17.10;;;;;;;1.03;88.28;97683.59;226402;1275;22553;-79
2024/02/08 05:29:01;;;;;;;24.00;16.60;;;;;;;1.04;88.14;97681.98;226346;1277;22549;-79
2024/02/08 05:34:05;;;;;;;31.60;20.80;;;;;;;1.03;88.49;97673.86;226316;1272;23967;-78
2024/02/08 05:39:28;;;;;;;29.70;19.80;;;;;;;1.05;88.48;97678.14;226379;1277;22551;-79
2024/02/08 05:44:31;;;;;;;27.80;19.90;;;;;;;1.06;88.59;97684.71;226403;1274;25179;-78
2024/02/08 05:49:35;;;;;;;21.30;15.80;;;;;;;1.07;88.27;97680.45;226363;1277;22530;-79
2024/02/08 05:54:40;;;;;;;23.70;16.20;;;;;;;1.04;88.01;97672.55;226230;1272;22569;-79
2024/02/08 05:59:44;;;;;;;27.00;19.00;;;;;;;1.00;88.12;97680.28;226153;1273;22572;-79
2024/02/08 06:04:59;;;;;;;30.10;20.00;;;;;;;1.04;88.42;97690.30;226335;1272;22540;-78
2024/02/08 06:10:23;;;;;;;24.00;17.10;;;;;;;1.05;88.15;97694.98;226327;1277;22574;-78
2024/02/08 06:15:33;;;;;;;25.00;17.10;;;;;;;1.05;88.19;97704.34;226412;1274;22563;-78
2024/02/08 06:20:40;;;;;;;24.20;18.80;;;;;;;1.05;88.25;97710.10;226338;1277;22567;-78
2024/02/08 06:26:27;;;;;;;27.60;19.90;;;;;;;1.10;88.35;97698.23;226343;1274;24293;-78
2024/02/08 06:31:14;;;;;;;30.90;21.80;;;;;;;1.18;88.45;97690.95;226166;1276;22530;-78
2024/02/08 06:36:22;;;;;;;31.30;22.10;;;;;;;1.27;88.35;97688.85;226359;1277;22540;-78
2024/02/08 06:46:48;;;;;;;31.80;21.00;;;;;;;1.40;88.27;97676.31;226444;1272;22597;-79
2024/02/08 07:45:27;;;;;;;30.60;20.20;;;;;;;2.33;87.21;97695.59;225889;1262;22614;-80
2024/02/08 07:50:35;;;;;;;26.30;19.50;;;;;;;2.43;86.95;97691.14;225720;1269;26021;-79
2024/02/08 08:05:44;;;;;;;32.40;22.70;;;;;;;2.86;86.57;97657.55;226308;1275;22597;-84
2024/02/08 08:10:47;;;;;;;30.10;19.90;;;;;;;3.01;86.31;97650.08;225899;1270;22691;-78
2024/02/08 08:16:35;;;;;;;31.10;19.70;;;;;;;3.13;86.10;97656.46;226234;1273;22611;-80
2024/02/08 08:21:25;;;;;;;28.60;18.60;;;;;;;3.26;85.94;97653.77;225993;1272;22536;-79
2024/02/08 08:26:44;;;;;;;27.50;18.90;;;;;;;3.40;85.87;97645.58;226061;1275;22554;-79
2024/02/08 08:31:52;;;;;;;26.30;17.00;;;;;;;3.53;85.63;97648.36;225948;1270;23101;-78
2024/02/08 08:37:03;;;;;;;30.50;19.50;;;;;;;3.60;85.14;97643.17;226141;1275;22607;-78
2024/02/08 08:42:06;;;;;;;28.40;19.00;;;;;;;3.68;84.82;97641.94;226204;1269;25351;-77
2024/02/08 08:47:08;;;;;;;28.50;17.70;;;;;;;3.79;85.16;97634.39;226160;1273;173509;-78
2024/02/08 08:52:23;;;;;;;24.70;16.80;;;;;;;3.93;84.68;97631.74;226425;1266;22536;-78
2024/02/08 08:57:26;;;;;;;26.70;16.80;;;;;;;4.06;84.31;97640.08;226283;1272;26532;-78
2024/02/08 09:07:20;;;;;;;26.30;17.50;;;;;;;4.31;84.29;97631.17;219765;1306;544871;-78
2024/02/08 09:12:36;;;;;;;24.90;17.80;;;;;;;4.32;83.47;97628.13;224664;1279;24798;-78
2024/02/08 09:17:51;;;;;;;24.80;16.40;;;;;;;4.44;83.44;97625.15;224558;1286;145409;-78
2024/02/08 09:22:57;;;;;;;29.20;20.30;;;;;;;4.58;83.35;97613.33;224798;1280;22568;-77
2024/02/08 09:28:22;;;;;;;23.90;16.70;;;;;;;4.67;82.48;97610.31;224471;1284;22764;-78
2024/02/08 09:33:30;;;;;;;24.40;16.90;;;;;;;4.74;82.36;97598.86;225419;1263;22542;-80
2024/02/08 09:38:44;;;;;;;23.80;16.10;;;;;;;4.85;82.34;97604.45;225146;1278;24307;-80
2024/02/08 09:43:48;;;;;;;22.10;15.50;;;;;;;5.02;82.52;97605.92;225260;1266;22546;-80
2024/02/08 09:48:51;;;;;;;21.60;13.60;;;;;;;5.21;81.92;97597.84;225810;1262;23228;-79
2024/02/08 09:54:01;;;;;;;21.90;14.50;;;;;;;5.26;81.20;97589.48;225642;1274;22534;-79
2024/02/08 09:59:18;;;;;;;19.80;14.00;;;;;;;5.27;81.00;97563.42;225866;1276;22602;-79
2024/02/08 10:04:25;;;;;;;20.60;13.20;;;;;;;5.43;81.09;97560.73;226009;1277;22560;-79
2024/02/08 10:09:40;;;;;;;19.60;12.90;;;;;;;5.41;80.16;97566.23;226036;1277;22537;-78
2024/02/08 10:14:45;;;;;;;17.80;10.60;;;;;;;5.43;80.76;97574.08;226024;1276;22718;-78
2024/02/08 10:30:57;;;;;;;16.90;10.60;;;;;;;5.85;79.87;97555.20;226088;1255;22561;-79
2024/02/08 10:36:07;;;;;;;12.40;9.30;;;;;;;5.95;79.40;97551.34;225786;1264;22564;-77
2024/02/08 10:41:11;;;;;;;17.50;10.10;;;;;;;5.93;79.01;97533.86;225769;1275;22543;-78
2024/02/08 10:46:16;;;;;;;15.90;10.50;;;;;;;5.96;78.43;97528.69;225653;1267;22654;-77
2024/02/08 10:51:25;;;;;;;14.80;9.30;;;;;;;6.04;78.47;97521.34;225837;1270;23027;-80
2024/02/08 10:56:40;;;;;;;18.20;11.60;;;;;;;6.19;78.58;97511.23;225665;1257;22550;-76
2024/02/08 11:06:55;;;;;;;14.90;9.00;;;;;;;6.41;78.00;97514.52;225864;1270;22559;-78
2024/02/08 11:12:03;;;;;;;15.20;9.00;;;;;;;6.42;77.17;97515.73;225933;1270;23651;-78
2024/02/08 11:17:19;;;;;;;14.00;8.00;;;;;;;6.36;77.31;97507.73;225788;1273;22573;-77
2024/02/08 11:22:39;;;;;;;15.80;9.40;;;;;;;6.31;76.87;97499.61;226044;1256;25529;-80
2024/02/08 11:27:43;;;;;;;13.70;8.70;;;;;;;6.29;76.38;97491.48;225855;1270;22543;-78
2024/02/08 11:33:01;;;;;;;11.30;7.10;;;;;;;6.30;77.40;97490.81;226108;1270;22575;-77
2024/02/08 11:38:10;;;;;;;10.80;6.70;;;;;;;6.29;76.99;97483.14;226186;1270;22555;-78
2024/02/08 11:43:23;;;;;;;12.70;8.00;;;;;;;6.13;76.79;97467.55;226212;1276;22549;-78
2024/02/08 11:48:41;;;;;;;10.80;8.30;;;;;;;6.04;77.27;97460.59;225664;1270;22546;-79
2024/02/08 11:53:45;;;;;;;13.50;8.40;;;;;;;5.95;76.76;97452.78;225637;1256;22619;-78
2024/02/08 11:58:49;;;;;;;18.10;11.00;;;;;;;5.94;77.58;97449.79;225782;1267;22583;-77
2024/02/08 12:03:53;;;;;;;15.40;9.80;;;;;;;5.96;77.88;97441.25;226171;1256;22557;-77
2024/02/08 12:08:59;;;;;;;16.60;11.30;;;;;;;5.97;77.84;97439.45;225753;1276;22544;-78
2024/02/08 12:14:02;;;;;;;18.30;11.40;;;;;;;5.99;78.36;97440.15;225718;1270;22557;-77
2024/02/08 12:19:17;;;;;;;20.50;14.60;;;;;;;5.99;78.17;97437.13;225896;1264;23618;-78
2024/02/08 12:24:23;;;;;;;17.90;12.30;;;;;;;5.88;78.30;97433.02;226045;1264;25438;-82
2024/02/08 12:29:26;;;;;;;17.20;12.40;;;;;;;5.73;78.03;97426.83;225856;1276;25952;-79
2024/02/08 12:34:33;;;;;;;18.40;12.30;;;;;;;5.56;78.24;97423.36;225891;1270;22556;-78
2024/02/08 12:39:44;;;;;;;17.50;12.70;;;;;;;5.47;78.57;97429.98;226108;1270;22578;-80
2024/02/08 12:44:50;;;;;;;16.10;12.50;;;;;;;5.33;78.24;97429.33;226096;1264;22565;-80
2024/02/08 12:49:53;;;;;;;16.20;12.20;;;;;;;5.16;78.78;97420.77;225831;1270;22650;-81
2024/02/08 12:54:56;;;;;;;17.20;12.20;;;;;;;5.06;79.08;97417.55;225820;1261;22658;-81
2024/02/08 13:00:13;;;;;;;17.90;12.90;;;;;;;5.01;79.51;97403.11;225621;1264;22995;-84
2024/02/08 13:05:16;;;;;;;22.70;15.70;;;;;;;4.98;79.43;97403.67;225895;1272;22532;-83
2024/02/08 13:10:24;;;;;;;25.30;15.60;;;;;;;5.00;79.57;97396.98;225864;1271;22597;-82
2024/02/08 13:15:34;;;;;;;20.00;14.30;;;;;;;5.04;80.09;97393.14;225927;1257;22556;-82
2024/02/08 13:20:36;;;;;;;23.20;16.20;;;;;;;5.01;79.85;97394.77;226029;1257;22614;-84
2024/02/08 13:26:00;;;;;;;23.50;16.00;;;;;;;4.90;80.03;97393.05;225521;1278;22641;-84
2024/02/08 13:31:38;;;;;;;20.10;15.50;;;;;;;4.85;80.29;97389.90;224936;1278;22579;-84
2024/02/08 13:36:43;;;;;;;26.80;17.20;;;;;;;4.78;80.60;97379.23;225042;1278;22583;-84
2024/02/08 13:41:46;;;;;;;23.10;16.80;;;;;;;4.73;80.88;97371.66;224974;1277;24228;-84
2024/02/08 13:46:48;;;;;;;25.80;17.60;;;;;;;4.75;81.06;97365.48;224867;1274;22551;-77
2024/02/08 13:51:50;;;;;;;25.80;18.10;;;;;;;4.78;81.33;97359.18;224781;1262;22643;-82
2024/02/08 13:56:53;;;;;;;21.10;15.80;;;;;;;4.75;81.35;97355.45;225142;1274;22566;-82
2024/02/08 14:01:55;;;;;;;25.50;18.10;;;;;;;4.68;81.23;97352.41;225442;1270;22540;-84
2024/02/08 14:06:57;;;;;;;28.30;18.20;;;;;;;4.62;81.31;97349.61;225718;1263;22598;-82
2024/02/08 14:12:08;;;;;;;29.10;18.00;;;;;;;4.53;81.43;97350.52;225674;1264;25357;-81
2024/02/08 14:17:10;;;;;;;25.10;17.30;;;;;;;4.48;81.74;97342.13;225845;1270;25359;-81
2024/02/08 14:22:16;;;;;;;27.20;18.50;;;;;;;4.45;82.26;97340.02;226043;1264;22571;-82
2024/02/08 14:27:23;;;;;;;28.20;19.20;;;;;;;4.40;82.31;97341.29;226156;1258;22593;-79
2024/02/08 14:32:25;;;;;;;26.70;19.30;;;;;;;4.35;82.18;97340.78;226173;1256;24951;-79
2024/02/08 14:37:39;;;;;;;41.60;29.00;;;;;;;4.25;82.53;97337.23;225822;1270;22575;-82
2024/02/08 14:42:43;;;;;;;36.90;26.00;;;;;;;4.19;82.72;97334.21;225410;1270;22926;-78
2024/02/08 14:47:50;;;;;;;34.20;24.40;;;;;;;4.16;82.88;97335.98;225851;1255;22560;-85
2024/02/08 14:53:00;;;;;;;33.40;22.60;;;;;;;4.14;83.10;97336.42;226067;1270;22569;-85
2024/02/08 14:58:03;;;;;;;34.50;24.80;;;;;;;4.11;83.16;97340.23;225486;1270;22537;-77
2024/02/08 15:03:07;;;;;;;40.30;27.70;;;;;;;4.06;83.15;97343.18;225628;1272;22551;-76
2024/02/08 15:13:23;;;;;;;34.20;23.80;;;;;;;3.96;83.22;97333.25;226041;1272;23015;-77
2024/02/08 15:18:38;;;;;;;34.10;24.40;;;;;;;3.86;83.46;97324.43;225753;1275;22593;-76
2024/02/08 15:24:18;;;;;;;34.90;24.10;;;;;;;3.80;83.55;97314.07;225933;1270;24227;-76
2024/02/08 15:29:30;;;;;;;34.80;22.40;;;;;;;3.74;83.90;97309.89;226154;1276;22564;-77
2024/02/08 15:44:58;;;;;;;36.90;23.90;;;;;;;3.48;84.37;97297.45;226390;1275;22593;-77
2024/02/08 15:50:14;;;;;;;36.10;25.40;;;;;;;3.46;84.69;97288.98;226247;1276;22533;-78
2024/02/08 15:55:17;;;;;;;42.40;28.20;;;;;;;3.44;84.97;97284.38;226180;1273;22552;-77
2024/02/08 16:05:44;;;;;;;47.60;30.90;;;;;;;3.39;85.13;97278.92;226151;1277;22566;-78
2024/02/08 16:10:49;;;;;;;41.90;30.00;;;;;;;3.36;85.49;97270.53;226180;1277;22552;-77
2024/02/08 16:15:55;;;;;;;41.60;29.50;;;;;;;3.35;85.74;97257.92;226341;1275;22579;-78
2024/02/08 16:21:05;;;;;;;56.90;36.60;;;;;;;3.36;86.12;97257.33;226144;1272;22547;-76
2024/02/08 16:26:09;;;;;;;61.00;39.90;;;;;;;3.39;86.22;97253.67;226400;1275;22557;-77
2024/02/08 16:41:47;;;;;;;59.60;38.00;;;;;;;3.34;86.42;97246.18;226163;1272;22539;-79
2024/02/08 16:46:57;;;;;;;62.00;40.60;;;;;;;3.37;86.92;97250.60;226130;1276;22567;-79
2024/02/08 16:52:03;;;;;;;59.40;37.90;;;;;;;3.39;86.89;97253.08;226077;1277;22543;-79
2024/02/08 16:57:07;;;;;;;49.20;33.40;;;;;;;3.42;86.88;97260.17;226180;1277;25429;-79
2024/02/08 17:02:23;;;;;;;42.30;29.70;;;;;;;3.44;86.88;97258.27;226161;1276;24294;-79
2024/02/08 17:13:08;;;;;;;50.00;33.20;;;;;;;3.36;86.78;97228.81;226378;1275;22571;-78
2024/02/08 17:18:13;;;;;;;47.10;31.50;;;;;;;3.32;87.12;97220.04;226125;1277;22779;-78
2024/02/08 17:23:19;;;;;;;48.90;33.70;;;;;;;3.30;87.23;97214.35;226170;1272;22524;-77
2024/02/08 17:28:31;;;;;;;44.50;28.40;;;;;;;3.31;87.34;97212.48;226263;1276;22603;-78
2024/02/08 17:33:39;;;;;;;43.00;29.70;;;;;;;3.30;87.47;97203.91;226373;1273;23330;-78
2024/02/08 17:38:42;;;;;;;44.20;28.80;;;;;;;3.29;87.48;97200.69;226133;1277;24356;-77
2024/02/08 17:43:49;;;;;;;38.00;25.00;;;;;;;3.26;87.55;97197.04;226172;1262;22612;-78
2024/02/08 17:48:54;;;;;;;36.70;25.40;;;;;;;3.22;87.46;97196.67;226100;1275;22601;-78
2024/02/08 17:54:00;;;;;;;35.70;25.50;;;;;;;3.17;87.54;97196.48;226107;1277;22541;-79
2024/02/08 17:59:05;;;;;;;40.20;27.20;;;;;;;3.15;87.62;97192.77;226179;1277;22561;-79
2024/02/08 18:04:16;;;;;;;41.00;26.50;;;;;;;3.14;87.80;97188.08;226369;1275;22617;-79
2024/02/08 18:09:23;;;;;;;41.30;27.50;;;;;;;3.13;88.02;97186.15;226738;1273;22686;-79
2024/02/08 18:14:25;;;;;;;39.30;25.60;;;;;;;3.16;88.20;97174.35;226692;1274;25402;-79
2024/02/08 18:19:32;;;;;;;36.10;25.10;;;;;;;3.14;87.91;97167.94;226675;1274;22546;-78
2024/02/08 18:24:34;;;;;;;35.00;24.50;;;;;;;3.13;88.27;97158.56;226706;1273;22555;-79
2024/02/08 18:29:37;;;;;;;34.00;24.00;;;;;;;3.12;88.36;97157.98;226637;1272;22828;-81
2024/02/08 18:34:40;;;;;;;30.10;21.30;;;;;;;3.08;88.24;97152.90;226608;1274;22565;-80
2024/02/08 18:39:43;;;;;;;32.30;22.30;;;;;;;3.05;88.44;97142.70;226690;1269;22549;-78
2024/02/08 18:44:45;;;;;;;32.70;21.20;;;;;;;3.02;88.51;97134.66;226837;1272;22915;-79
2024/02/08 18:49:54;;;;;;;27.60;20.00;;;;;;;3.00;88.55;97138.08;226649;1274;23711;-79
2024/02/08 18:54:59;;;;;;;33.40;22.50;;;;;;;2.98;88.60;97137.09;226774;1274;22818;-79
2024/02/08 19:00:13;;;;;;;30.10;21.00;;;;;;;2.97;88.84;97132.67;226677;1262;22562;-79
2024/02/08 19:05:17;;;;;;;27.70;19.70;;;;;;;2.96;88.95;97128.78;226634;1274;22540;-79
2024/02/08 19:10:20;;;;;;;26.30;18.20;;;;;;;3.00;89.18;97125.04;226770;1273;22547;-79
2024/02/08 19:15:23;;;;;;;26.40;18.80;;;;;;;2.98;89.03;97123.82;226786;1274;22561;-78
2024/02/08 19:20:25;;;;;;;28.00;20.20;;;;;;;2.97;89.01;97120.98;226708;1275;22536;-79
2024/02/08 19:25:29;;;;;;;26.90;18.70;;;;;;;2.97;89.11;97111.28;226699;1275;22550;-79
2024/02/08 19:30:32;;;;;;;29.90;19.80;;;;;;;2.95;88.97;97107.34;226639;1272;22554;-79
2024/02/08 19:35:40;;;;;;;24.60;16.50;;;;;;;2.96;89.22;97100.49;226877;1269;22552;-79
2024/02/08 19:40:43;;;;;;;23.70;16.50;;;;;;;2.95;89.21;97089.29;226738;1274;22543;-79
2024/02/08 19:45:46;;;;;;;23.70;16.70;;;;;;;2.93;89.25;97086.17;226678;1274;23022;-79
2024/02/08 19:50:48;;;;;;;22.20;17.40;;;;;;;2.94;89.52;97081.44;226652;1274;22546;-78
2024/02/08 19:55:53;;;;;;;24.40;17.60;;;;;;;2.96;89.59;97074.40;226512;1272;22547;-78
2024/02/08 20:00:59;;;;;;;23.60;17.00;;;;;;;2.97;89.58;97062.24;226649;1273;22554;-78
2024/02/08 20:06:10;;;;;;;21.40;14.50;;;;;;;2.96;89.52;97077.73;226833;1275;22543;-78
2024/02/08 20:11:13;;;;;;;24.50;16.50;;;;;;;2.94;89.58;97058.91;226676;1273;22539;-78
2024/02/08 20:16:26;;;;;;;19.60;14.40;;;;;;;2.94;89.57;97062.66;226764;1272;22566;-78
2024/02/08 20:21:32;;;;;;;19.80;14.10;;;;;;;2.94;89.63;97052.88;226702;1275;22540;-78
2024/02/08 20:26:34;;;;;;;18.90;14.80;;;;;;;2.95;89.82;97061.83;226713;1274;22749;-78
2024/02/08 20:31:37;;;;;;;15.80;11.90;;;;;;;2.95;89.80;97052.80;226659;1271;22550;-78
2024/02/08 20:36:39;;;;;;;18.30;13.00;;;;;;;2.95;89.98;97044.23;226683;1274;22561;-78
2024/02/08 20:41:42;;;;;;;17.20;12.90;;;;;;;2.95;89.99;97040.17;226668;1275;22560;-78
2024/02/08 20:46:48;;;;;;;15.80;12.80;;;;;;;2.98;89.94;97032.64;226750;1273;25252;-78
2024/02/08 20:51:51;;;;;;;18.70;14.00;;;;;;;2.97;90.05;97025.09;226773;1269;25401;-78
2024/02/08 20:56:53;;;;;;;19.60;15.40;;;;;;;2.97;90.05;97027.57;226900;1272;27246;-77
2024/02/08 21:01:56;;;;;;;20.10;14.60;;;;;;;2.99;90.15;97033.25;226796;1275;23317;-78
2024/02/08 21:06:59;;;;;;;22.90;16.20;;;;;;;2.97;90.04;97037.49;226759;1273;22537;-77
2024/02/08 21:12:05;;;;;;;16.20;11.50;;;;;;;2.97;90.00;97043.98;226810;1273;22578;-78
2024/02/08 21:17:10;;;;;;;16.30;13.20;;;;;;;2.97;90.18;97045.23;226769;1273;23825;-78
2024/02/08 21:22:15;;;;;;;18.60;14.00;;;;;;;2.95;90.01;97044.61;226669;1272;203495;-78
2024/02/08 21:27:19;;;;;;;15.20;12.40;;;;;;;2.93;90.05;97039.85;226856;1272;26127;-77
2024/02/08 21:32:23;;;;;;;16.00;12.60;;;;;;;2.93;90.12;97025.82;226672;1273;22667;-77
2024/02/08 21:37:26;;;;;;;19.50;13.80;;;;;;;2.92;90.20;97024.15;226831;1272;22539;-78
2024/02/08 21:42:29;;;;;;;18.90;14.00;;;;;;;2.93;90.39;97022.20;226846;1272;22692;-78
2024/02/08 21:47:33;;;;;;;17.40;14.10;;;;;;;2.95;90.26;97012.98;226821;1272;22543;-77
2024/02/08 21:52:37;;;;;;;19.30;16.00;;;;;;;2.97;90.47;96998.96;226705;1251;22591;-78
2024/02/08 21:57:40;;;;;;;22.70;17.80;;;;;;;3.01;90.57;97001.34;226790;1269;22546;-77
2024/02/08 22:02:43;;;;;;;25.40;18.30;;;;;;;3.04;90.56;96991.82;226706;1272;22560;-78
2024/02/08 22:07:49;;;;;;;27.60;20.60;;;;;;;3.11;90.64;96996.23;226696;1274;22548;-77
2024/02/08 22:12:51;;;;;;;25.30;18.90;;;;;;;3.14;90.66;96997.37;226773;1275;22977;-78
2024/02/08 22:17:53;;;;;;;20.50;16.90;;;;;;;3.13;90.26;96995.39;226738;1274;22550;-78
2024/02/08 22:22:59;;;;;;;22.40;17.20;;;;;;;3.15;90.56;96999.48;226708;1273;22574;-77
2024/02/08 22:28:07;;;;;;;21.50;16.60;;;;;;;3.15;90.31;96991.52;226740;1272;22646;-77
2024/02/08 22:33:13;;;;;;;20.70;17.20;;;;;;;3.13;90.53;97005.83;226829;1274;24454;-77
2024/02/08 22:38:19;;;;;;;20.00;14.90;;;;;;;3.18;90.85;96990.64;226705;1273;22535;-77
2024/02/08 22:43:23;;;;;;;20.50;15.60;;;;;;;3.28;91.03;97000.45;226651;1274;22563;-78
2024/02/08 22:48:25;;;;;;;19.90;13.50;;;;;;;3.34;90.74;97009.62;226742;1274;22568;-77
2024/02/08 22:53:27;;;;;;;17.60;12.80;;;;;;;3.34;90.69;97013.24;226597;1275;22548;-78
2024/02/08 22:58:29;;;;;;;18.30;14.10;;;;;;;3.33;90.56;97006.27;226731;1273;22568;-76
2024/02/08 23:03:31;;;;;;;18.20;14.80;;;;;;;3.30;90.48;97001.15;226801;1272;22544;-77
2024/02/08 23:08:35;;;;;;;18.90;15.40;;;;;;;3.30;90.62;97019.74;226902;1272;22536;-78
2024/02/08 23:13:37;;;;;;;28.90;20.50;;;;;;;3.31;90.63;97017.42;226872;1272;22540;-78
2024/02/08 23:18:39;;;;;;;21.70;16.70;;;;;;;3.33;90.64;97010.61;226775;1274;22562;-77
2024/02/08 23:23:41;;;;;;;17.40;15.10;;;;;;;3.38;90.91;97006.86;226752;1274;22547;-78
2024/02/08 23:28:44;;;;;;;15.70;13.10;;;;;;;3.42;90.89;97010.30;226574;1275;22543;-78
2024/02/08 23:33:47;;;;;;;21.70;17.90;;;;;;;3.42;90.53;97014.83;226622;1275;22544;-78
2024/02/08 23:38:49;;;;;;;20.80;17.00;;;;;;;3.43;90.70;97009.86;226702;1275;25344;-78
2024/02/08 23:43:53;;;;;;;22.50;18.00;;;;;;;3.43;90.66;97012.48;226807;1272;22564;-77
2024/02/08 23:48:56;;;;;;;19.60;15.20;;;;;;;3.43;90.64;97002.84;226578;1274;22547;-77
2024/02/08 23:53:59;;;;;;;21.20;16.80;;;;;;;3.44;90.55;97006.14;226810;1272;22627;-78
2024/02/08 23:59:04;;;;;;;23.80;18.10;;;;;;;3.45;90.72;97006.80;226590;1275;22539;-78
